Chandler, MN (56122)

2:47 PM CDT on July 31, 2014 (GMT -0500)
KMNCHAND2 Elev 1808 ft | 43.85 °N, 95.91 °W | Change Station

Current weather conditions updated 2 minutes ago

Scattered Clouds
Scattered Clouds
76.2 °F
Feels Like 78 °F
N
8.0
Wind Variable Wind from South
Gusts 11.0 mph

Today is forecast to be nearly the same temperature as yesterday.

Today
High -- | Low -- °F
--% Chance of Precip.
Yesterday
High -- | Low -- °F
Precip. -- in
6:11 AM 8:48 PM
Waxing Crescent, 20% visible
Pressure 30.08 in
Visibility 10.0 miles
Clouds Scattered Clouds 5000 ft
Heat Index 78 °F
Dew Point 59 °F
Humidity 55%
Rainfall 0.00 in
Snow Depth Not available.
UV 8 out of 12
Pollen 6.40 out of 12
Air Quality Not available.
Flu Activity Not available.
METAR KDVP 311934Z AUTO 00000KT 10SM SCT050 26/11 A3008 RMK AO2 T02590107

More Conditions Fewer Conditions

Pressure 30.08 in
Visibility 10.0 miles
Clouds Scattered Clouds 5000 ft
Heat Index 78 °F
Dew Point 59 °F
Humidity 55%
Rainfall 0.00 in
Snow Depth Not available.
UV 8 out of 12
Pollen 6.40 out of 12
Air Quality Not available.
Flu Activity Not available.
METAR KDVP 311934Z AUTO 00000KT 10SM SCT050 26/11 A3008 RMK AO2 T02590107

More Conditions Fewer Conditions

10-Day Weather Forecast

Almanac

Astronomy

Jul. 31, 2014 Rise Set
Actual Time 6:11 AM CDT 8:48 PM CDT
Civil Twilight 5:38 AM CDT 9:21 PM CDT
Nautical Twilight 4:56 AM CDT 10:02 PM CDT
Astronomical Twilight 4:09 AM CDT 10:49 PM CDT
Moon 10:50 AM CDT 10:50 PM CDT
Length of Visible Light 15h 43m
Length of Day
14h 37m
Tomorrow will be 2m 17s shorter.
Waxing Crescent, 20% of the Moon is Illuminated
Today
Waxing Crescent
Aug 3
First Quarter
Aug 10
Full
Aug 17
Last Quarter
Aug 25
New

Today's Extremes

State Highs State Lows

Community

WunderPhotos

Upload Photos

1,739,438 photos uploaded!

Nearby

Snow Depth

Station Depth Elevation
No new snow has been reported.

Earthquake Activity

City Distance Mag. Time & Date
No recent earthquake activity has been reported nearby.
Minimum magnitude displayed is 2.5.

Coastal Water Temperatures

Place Temperature
No Stations Reporting

Nearby Weather Stations

Station Location Temp. Heat Index Dew Point Humidity Wind Precip. Elev Updated Type
Chandler, MN 76.2 °F 78 °F 59 °F 55% South  at  8.0 mph 0.00 in / hr 1808 ft 2:44 PM CDT Normal
Bremer Pond, Hardwick, MN 80.3 °F 81 °F 62 °F 53% SW  at  3.0 mph 0.00 in / hr 1486 ft 2:45 PM CDT Normal
RAWS REDSTN MN, Pipestone, MN 77 °F 79 °F 57 °F 50% NNW  at  3 mph 0.00 in / hr 1660 ft 1:21 PM CDT MADIS
Rock Lake, Balaton, MN 78.8 °F 80 °F 59 °F 50% NNE  at  2.9 mph 0.00 in / hr 1568 ft 2:47 PM CDT Rapid Fire

Show More Stations Show Fewer Stations